Time;durP1;ratioP1;P1;durP2;ratioP2;P2;SDS_P1;SDS_P2;PMS_P1;PMS_P2;Temp;Humidity;BMP_temperature;BMP_pressure;BME280_temperature;BME280_humidity;BME280_pressure;Samples;Min_cycle;Max_cycle;Signal;HPM_P1;HPM_P2
2023/02/01 00:02:00;;;;;;;7.70;5.00;;;;;;;6.97;62.82;98140.78;5063709;28;20191;-68
2023/02/01 00:04:26;;;;;;;6.13;4.40;;;;;;;6.85;63.05;98138.06;5068627;28;20233;-68
2023/02/01 00:06:51;;;;;;;7.30;5.20;;;;;;;6.76;63.58;98136.94;5060917;28;20428;-68
2023/02/01 00:09:17;;;;;;;5.57;4.40;;;;;;;6.82;63.30;98140.06;5063450;28;20417;-67
2023/02/01 00:11:42;;;;;;;7.27;5.07;;;;;;;6.83;63.39;98132.13;5064612;28;20209;-71
2023/02/01 00:14:08;;;;;;;5.40;4.37;;;;;;;6.84;63.42;98125.16;5067047;28;20206;-69
2023/02/01 00:16:33;;;;;;;5.13;3.83;;;;;;;6.84;63.09;98112.13;5063906;28;20244;-68
2023/02/01 00:19:05;;;;;;;7.33;4.70;;;;;;;6.74;63.43;98117.97;5057478;28;20183;-68
2023/02/01 00:21:31;;;;;;;5.23;4.57;;;;;;;6.68;63.91;98107.16;5065381;28;20247;-69
2023/02/01 00:23:56;;;;;;;6.77;4.70;;;;;;;6.67;63.53;98105.50;5063644;28;20441;-68
2023/02/01 00:26:27;;;;;;;6.03;4.20;;;;;;;6.68;63.82;98113.19;5063217;28;20422;-70
2023/02/01 00:28:53;;;;;;;5.20;4.50;;;;;;;6.57;63.74;98115.69;5055520;28;20696;-70
2023/02/01 00:31:18;;;;;;;5.30;4.07;;;;;;;6.69;63.63;98114.00;5060065;28;20434;-68
2023/02/01 00:33:47;;;;;;;5.03;4.53;;;;;;;6.93;63.23;98121.09;5054109;28;20452;-68
2023/02/01 00:36:12;;;;;;;5.40;4.20;;;;;;;6.96;62.92;98116.50;5047670;28;20229;-67
2023/02/01 00:38:38;;;;;;;5.10;3.90;;;;;;;6.98;62.54;98117.22;5063805;28;20424;-69
2023/02/01 00:41:04;;;;;;;4.93;4.00;;;;;;;6.83;62.88;98106.06;5050440;28;20265;-69
2023/02/01 00:43:33;;;;;;;4.53;3.73;;;;;;;6.91;62.53;98114.22;5065221;28;20186;-68
2023/02/01 00:45:58;;;;;;;5.97;4.30;;;;;;;6.95;62.48;98099.19;5059563;28;20798;-69
2023/02/01 00:48:25;;;;;;;5.30;4.10;;;;;;;6.80;62.92;98101.09;5065839;28;20424;-70
2023/02/01 00:50:50;;;;;;;4.77;3.43;;;;;;;7.00;62.30;98102.28;5060010;28;20274;-69
2023/02/01 00:53:16;;;;;;;5.23;3.70;;;;;;;6.93;62.22;98106.28;5051545;28;20521;-69
2023/02/01 00:55:48;;;;;;;5.20;4.00;;;;;;;6.97;62.43;98096.47;5065609;28;20214;-69
2023/02/01 00:58:14;;;;;;;4.70;3.70;;;;;;;7.07;61.71;98087.03;5053860;28;20210;-69
2023/02/01 01:00:39;;;;;;;4.47;3.53;;;;;;;7.10;62.15;98086.84;5061503;28;20448;-69
2023/02/01 01:03:17;;;;;;;4.33;3.90;;;;;;;7.08;61.53;98086.09;5063650;28;20456;-69
2023/02/01 01:05:48;;;;;;;3.87;3.20;;;;;;;6.82;62.21;98093.16;5047591;28;20282;-69
2023/02/01 01:08:15;;;;;;;3.70;3.23;;;;;;;7.03;62.28;98101.25;5059128;28;20518;-70
2023/02/01 01:10:41;;;;;;;4.17;3.10;;;;;;;7.09;61.90;98097.38;5056053;28;20435;-68
2023/02/01 01:13:07;;;;;;;4.23;3.53;;;;;;;7.17;61.87;98092.44;5050366;28;20428;-68
2023/02/01 01:15:39;;;;;;;4.50;2.87;;;;;;;7.11;61.95;98093.72;5051006;28;20437;-66
2023/02/01 01:18:05;;;;;;;3.30;3.00;;;;;;;7.15;61.67;98078.69;5036763;28;20454;-70
2023/02/01 01:20:30;;;;;;;4.30;3.10;;;;;;;7.08;61.90;98088.72;5059077;28;20417;-69
2023/02/01 01:22:56;;;;;;;3.03;2.73;;;;;;;7.19;61.51;98080.97;5047799;28;20258;-69
2023/02/01 01:25:21;;;;;;;2.97;2.60;;;;;;;7.03;62.04;98080.41;5060801;28;20313;-68
2023/02/01 01:27:47;;;;;;;3.13;2.70;;;;;;;7.18;61.90;98074.06;5051794;28;20583;-69
2023/02/01 01:30:13;;;;;;;3.40;2.80;;;;;;;7.17;61.72;98079.41;5057584;28;20190;-69
2023/02/01 01:32:38;;;;;;;3.43;2.50;;;;;;;7.27;61.13;98087.41;5054494;28;20238;-68
2023/02/01 01:35:04;;;;;;;3.43;2.67;;;;;;;7.25;60.49;98087.50;5039427;28;20219;-69
2023/02/01 01:37:29;;;;;;;2.80;2.60;;;;;;;7.29;60.56;98093.38;5057892;28;20221;-70
2023/02/01 01:39:55;;;;;;;3.30;3.00;;;;;;;7.28;60.67;98087.28;5051286;28;20237;-69
2023/02/01 01:42:21;;;;;;;3.70;2.80;;;;;;;7.13;61.21;98086.63;5061077;28;20240;-67
2023/02/01 01:45:08;;;;;;;3.60;2.40;;;;;;;7.20;61.65;98076.59;5046914;28;20445;-67
2023/02/01 01:47:43;;;;;;;2.83;2.63;;;;;;;7.34;60.73;98067.75;5047530;28;20190;-69
2023/02/01 01:50:11;;;;;;;3.00;2.60;;;;;;;7.26;60.20;98070.91;5043388;28;20421;-68
2023/02/01 01:52:37;;;;;;;2.50;2.30;;;;;;;7.36;60.74;98076.31;5049510;28;20443;-68
2023/02/01 01:55:03;;;;;;;2.60;2.40;;;;;;;7.24;60.05;98062.41;5050883;28;20454;-67
2023/02/01 01:57:37;;;;;;;3.40;2.83;;;;;;;7.42;60.30;98055.03;5058431;28;20214;-68
2023/02/01 02:00:22;;;;;;;3.00;2.70;;;;;;;7.33;60.20;98066.09;5050770;28;20431;-70
2023/02/01 02:02:55;;;;;;;3.20;2.90;;;;;;;7.36;60.88;98058.91;5039375;28;20975;-67
2023/02/01 02:05:20;;;;;;;2.50;2.30;;;;;;;7.53;60.62;98051.63;5054913;28;20472;-69
2023/02/01 02:07:48;;;;;;;3.77;2.80;;;;;;;7.58;60.27;98065.16;5057528;28;20425;-70
2023/02/01 02:10:15;;;;;;;3.67;3.10;;;;;;;7.56;60.02;98066.22;5064619;28;20205;-69
2023/02/01 02:12:42;;;;;;;3.23;2.73;;;;;;;7.46;60.48;98061.66;5058146;28;20425;-65
2023/02/01 02:15:10;;;;;;;3.50;3.17;;;;;;;7.54;59.94;98063.72;5064077;28;20523;-67
2023/02/01 02:17:38;;;;;;;3.90;3.50;;;;;;;7.46;60.75;98061.66;5023816;28;20473;-67
2023/02/01 02:20:26;;;;;;;3.73;3.33;;;;;;;7.47;60.48;98068.53;5060065;28;20417;-66
2023/02/01 02:23:23;;;;;;;3.63;3.33;;;;;;;7.32;60.51;98060.06;5059456;28;20991;-70
2023/02/01 02:26:01;;;;;;;4.80;3.20;;;;;;;7.25;60.91;98052.78;5056088;28;20451;-68
2023/02/01 02:28:57;;;;;;;3.23;2.93;;;;;;;7.31;60.90;98053.19;5059989;28;20424;-68
2023/02/01 02:31:42;;;;;;;3.67;3.37;;;;;;;7.14;61.33;98049.19;5062804;28;20478;-67
2023/02/01 02:34:27;;;;;;;3.83;3.43;;;;;;;7.20;61.09;98048.72;5062561;28;20448;-69
2023/02/01 02:37:06;;;;;;;3.40;3.10;;;;;;;7.35;61.36;98043.34;5049612;28;21154;-70
2023/02/01 02:39:38;;;;;;;2.90;2.67;;;;;;;7.37;60.87;98041.47;5050406;28;20508;-68
2023/02/01 02:47:59;;;;;;;4.37;3.10;;;;;;;7.34;60.82;98036.47;5063506;28;20409;-67
2023/02/01 03:04:26;;;;;;;3.47;3.17;;;;;;;7.19;62.01;98025.38;5065214;28;20453;-69
2023/02/01 03:06:53;;;;;;;3.20;2.90;;;;;;;7.26;61.87;98020.56;5062639;28;20441;-70
2023/02/01 03:09:25;;;;;;;3.50;3.20;;;;;;;7.10;62.27;98024.28;5050884;28;20186;-71
2023/02/01 03:14:41;;;;;;;3.20;2.90;;;;;;;7.22;62.28;98023.38;5058140;28;20473;-68
2023/02/01 03:17:21;;;;;;;3.77;3.37;;;;;;;6.96;62.66;98027.03;5053154;28;21216;-69
2023/02/01 03:19:49;;;;;;;5.40;3.60;;;;;;;7.28;61.62;98026.50;5045771;28;20482;-68
2023/02/01 03:22:22;;;;;;;3.27;2.97;;;;;;;7.33;61.57;98029.59;5054212;28;20436;-70
2023/02/01 03:24:52;;;;;;;3.77;3.47;;;;;;;7.34;61.44;98031.25;5059857;28;20452;-69
2023/02/01 03:27:22;;;;;;;4.73;3.33;;;;;;;7.35;61.95;98027.72;5064145;28;20431;-68
2023/02/01 03:29:49;;;;;;;4.13;3.73;;;;;;;7.40;61.88;98023.00;5041631;28;20482;-69
2023/02/01 03:32:14;;;;;;;4.03;3.63;;;;;;;7.31;62.09;98011.47;5060473;28;20436;-68
2023/02/01 03:34:40;;;;;;;3.17;2.97;;;;;;;7.31;61.80;98000.22;5059236;28;20447;-69
2023/02/01 03:37:09;;;;;;;3.80;3.40;;;;;;;7.30;61.77;98001.16;5054237;28;20199;-69
2023/02/01 03:39:46;;;;;;;5.33;4.13;;;;;;;7.16;62.67;98002.13;5059958;28;20178;-68
2023/02/01 03:42:23;;;;;;;4.53;3.83;;;;;;;7.20;62.28;97999.19;5057164;28;20420;-68
2023/02/01 03:45:23;;;;;;;3.13;2.83;;;;;;;7.13;62.52;97992.78;5065023;28;20444;-68
2023/02/01 03:47:51;;;;;;;3.50;3.20;;;;;;;7.12;62.66;97991.09;5052770;28;20993;-70
2023/02/01 03:50:19;;;;;;;3.77;3.20;;;;;;;7.31;62.63;97979.34;5058356;28;20520;-69
2023/02/01 03:52:59;;;;;;;3.70;3.30;;;;;;;7.07;62.49;97996.66;5061612;28;20417;-69
2023/02/01 03:55:27;;;;;;;4.67;3.87;;;;;;;7.20;62.34;97978.34;5063358;28;20487;-68
2023/02/01 03:58:04;;;;;;;4.10;3.70;;;;;;;7.15;62.72;97977.84;5066364;28;20456;-68
2023/02/01 04:00:30;;;;;;;4.00;3.60;;;;;;;7.00;63.13;97986.78;5064574;28;20429;-68
2023/02/01 04:02:55;;;;;;;4.73;3.70;;;;;;;7.13;62.55;97991.91;5068965;28;20511;-68
2023/02/01 04:05:21;;;;;;;4.57;3.47;;;;;;;7.17;63.06;97986.41;5064454;28;20202;-68
2023/02/01 04:07:47;;;;;;;3.50;3.20;;;;;;;7.23;62.14;97978.13;5062226;28;20217;-69
2023/02/01 04:10:12;;;;;;;3.93;3.40;;;;;;;7.35;62.50;97979.00;5066553;28;20979;-69
2023/02/01 04:12:39;;;;;;;4.30;3.50;;;;;;;7.47;62.47;97969.44;5056831;28;20605;-67
2023/02/01 04:15:05;;;;;;;6.60;3.30;;;;;;;7.51;61.81;97976.09;5066574;28;20252;-68
2023/02/01 04:17:30;;;;;;;3.97;3.47;;;;;;;7.50;61.54;97982.25;5047367;28;20492;-69
2023/02/01 04:19:56;;;;;;;3.60;3.30;;;;;;;7.60;61.40;97989.38;5056706;28;20504;-67
2023/02/01 04:22:21;;;;;;;3.60;3.30;;;;;;;7.62;61.62;97996.16;5063063;28;20194;-68
2023/02/01 04:24:47;;;;;;;4.63;3.20;;;;;;;7.66;61.25;97999.38;5061211;28;20206;-70
2023/02/01 04:27:13;;;;;;;3.50;3.20;;;;;;;7.74;60.75;98001.41;5061154;28;20309;-68
2023/02/01 04:29:38;;;;;;;4.93;3.03;;;;;;;7.80;60.79;98008.78;5038401;28;20193;-69
2023/02/01 04:32:04;;;;;;;4.17;3.33;;;;;;;7.76;60.47;98008.19;5066085;28;20190;-71
2023/02/01 04:34:29;;;;;;;3.00;2.70;;;;;;;7.70;60.74;98006.00;5052782;28;20213;-69
2023/02/01 04:36:55;;;;;;;3.77;2.77;;;;;;;7.56;60.54;98011.44;5059581;28;20206;-69
2023/02/01 04:39:20;;;;;;;3.40;3.10;;;;;;;7.63;60.30;97995.19;5049921;28;20186;-69
2023/02/01 04:41:46;;;;;;;3.80;3.23;;;;;;;7.62;60.52;97985.72;5062241;28;20197;-71
2023/02/01 04:44:18;;;;;;;3.20;2.90;;;;;;;7.67;60.80;97995.81;5053271;28;20238;-68
2023/02/01 04:46:45;;;;;;;4.00;2.87;;;;;;;7.73;60.67;97981.47;5060249;28;20668;-67
2023/02/01 04:49:11;;;;;;;4.17;3.00;;;;;;;7.79;60.75;98000.13;5052399;28;20986;-68
2023/02/01 04:51:37;;;;;;;3.30;3.10;;;;;;;7.75;60.15;98003.91;5058033;28;20452;-69
2023/02/01 04:54:02;;;;;;;2.70;2.50;;;;;;;7.81;60.33;98003.41;5033864;28;20592;-69
2023/02/01 04:56:28;;;;;;;3.07;2.70;;;;;;;7.78;59.34;98003.69;5048652;28;21020;-68
2023/02/01 04:58:53;;;;;;;3.90;2.80;;;;;;;7.57;60.21;97980.00;5057697;28;20214;-70
2023/02/01 05:01:18;;;;;;;3.30;2.90;;;;;;;7.62;60.22;97982.28;5058988;28;20622;-68
2023/02/01 05:03:44;;;;;;;4.17;2.73;;;;;;;7.70;59.80;97964.25;5051073;28;20261;-67
2023/02/01 05:06:10;;;;;;;3.30;3.00;;;;;;;7.72;60.42;97962.38;5049768;28;20560;-69
2023/02/01 05:08:35;;;;;;;3.40;2.53;;;;;;;7.75;60.14;97962.16;5051183;28;20241;-68
2023/02/01 05:11:03;;;;;;;2.83;2.63;;;;;;;7.79;60.24;97974.03;5050687;28;20605;-68
2023/02/01 05:16:29;;;;;;;4.13;2.80;;;;;;;7.83;60.02;97977.22;5026637;28;20496;-68
2023/02/01 05:18:55;;;;;;;3.30;2.57;;;;;;;7.75;60.18;97988.25;5047725;28;20469;-67
2023/02/01 05:21:20;;;;;;;3.47;2.67;;;;;;;7.81;60.12;98002.59;5048144;28;20206;-69
2023/02/01 05:26:30;;;;;;;2.90;2.57;;;;;;;7.80;59.60;98001.78;5048129;28;20178;-67
2023/02/01 05:28:56;;;;;;;3.30;3.00;;;;;;;7.86;59.43;97982.22;5049281;28;20421;-68
2023/02/01 05:31:22;;;;;;;3.60;2.50;;;;;;;7.88;59.66;97992.53;5045302;28;20245;-69
2023/02/01 05:33:47;;;;;;;3.13;2.80;;;;;;;7.77;59.92;98007.22;5049228;28;20203;-70
2023/02/01 05:36:13;;;;;;;2.80;2.60;;;;;;;7.62;59.98;97998.78;5048258;28;20414;-68
2023/02/01 05:38:38;;;;;;;3.03;2.73;;;;;;;7.66;60.17;97994.16;5047271;28;20670;-68
2023/02/01 05:41:04;;;;;;;3.00;2.70;;;;;;;7.72;60.26;97995.47;5053885;28;20186;-67
2023/02/01 05:43:29;;;;;;;3.47;2.43;;;;;;;7.50;60.97;98005.72;5060353;28;20183;-68
2023/02/01 05:45:55;;;;;;;5.93;2.30;;;;;;;7.58;61.00;98012.13;5055549;28;20182;-70
2023/02/01 05:48:20;;;;;;;3.33;2.67;;;;;;;7.48;60.86;98004.19;5048409;28;20222;-67
2023/02/01 05:50:46;;;;;;;3.13;2.30;;;;;;;7.56;60.86;98014.06;5048535;28;20266;-69
2023/02/01 05:53:12;;;;;;;3.50;2.67;;;;;;;7.64;60.71;98011.69;5046607;28;20265;-69
2023/02/01 05:55:37;;;;;;;2.87;2.37;;;;;;;7.47;61.52;98016.38;5044870;28;20219;-68
2023/02/01 05:58:04;;;;;;;5.17;3.10;;;;;;;7.45;62.00;98023.47;5047979;28;20465;-68
2023/02/01 06:00:29;;;;;;;4.17;2.80;;;;;;;7.53;61.81;98021.16;5051149;28;20944;-69
2023/02/01 06:02:54;;;;;;;4.20;2.60;;;;;;;7.36;62.12;98018.94;5053845;28;20429;-70
2023/02/01 06:05:20;;;;;;;3.10;2.73;;;;;;;7.23;63.11;98025.06;5046497;28;20252;-69
2023/02/01 06:07:46;;;;;;;2.93;2.70;;;;;;;7.42;62.58;98018.50;5048912;28;20218;-69
2023/02/01 06:10:12;;;;;;;4.13;2.87;;;;;;;7.45;62.28;97994.78;5046697;28;20186;-70
2023/02/01 06:12:38;;;;;;;6.50;2.50;;;;;;;7.48;62.01;98002.38;5041569;28;20471;-69
2023/02/01 06:15:03;;;;;;;5.20;2.90;;;;;;;7.42;62.25;97991.56;5047062;28;20449;-71
2023/02/01 06:17:29;;;;;;;3.20;2.50;;;;;;;7.45;62.64;98001.78;5050374;28;20206;-70
2023/02/01 06:19:54;;;;;;;3.60;3.00;;;;;;;7.18;62.74;97990.66;5048707;28;20284;-69
2023/02/01 06:22:21;;;;;;;3.53;2.87;;;;;;;7.16;63.00;97984.72;5048088;28;20614;-69
2023/02/01 06:24:47;;;;;;;6.17;2.77;;;;;;;6.97;63.46;97973.97;5047206;28;20263;-68
2023/02/01 06:27:13;;;;;;;3.43;2.90;;;;;;;7.11;63.47;97963.38;5047723;28;20449;-69
2023/02/01 06:29:38;;;;;;;9.03;2.80;;;;;;;7.01;63.40;97972.81;5042248;28;20829;-70
2023/02/01 06:32:04;;;;;;;2.53;2.30;;;;;;;7.20;62.75;97988.75;5048197;28;20194;-68
2023/02/01 06:34:29;;;;;;;4.70;2.97;;;;;;;7.19;62.47;97984.50;5044559;28;20215;-68
2023/02/01 06:36:55;;;;;;;3.33;2.70;;;;;;;7.23;62.83;97987.72;5043233;28;20211;-73
2023/02/01 06:39:20;;;;;;;3.67;3.00;;;;;;;7.08;63.05;97997.47;5042608;28;20260;-70
2023/02/01 06:41:47;;;;;;;3.13;2.40;;;;;;;7.22;62.97;97999.91;5042698;28;20187;-69
2023/02/01 06:44:12;;;;;;;4.43;2.80;;;;;;;7.04;62.99;98001.25;5047601;28;20211;-68
2023/02/01 06:46:38;;;;;;;2.77;2.57;;;;;;;7.21;62.82;97995.63;5055460;28;20900;-69
2023/02/01 06:49:03;;;;;;;3.47;2.90;;;;;;;7.28;62.62;98003.03;5053146;28;20179;-70
2023/02/01 06:51:29;;;;;;;4.03;2.90;;;;;;;7.33;62.38;97998.28;5043903;28;20551;-69
2023/02/01 06:53:55;;;;;;;5.00;3.07;;;;;;;7.36;62.45;97996.31;5033923;28;20210;-70
2023/02/01 06:56:21;;;;;;;6.40;3.17;;;;;;;7.43;62.42;97996.69;5043084;28;20210;-70
2023/02/01 06:58:46;;;;;;;3.13;2.73;;;;;;;7.44;62.23;98006.16;5048037;28;20422;-69
2023/02/01 07:01:12;;;;;;;8.83;4.20;;;;;;;7.25;62.63;98005.84;5048495;28;20194;-71
2023/02/01 07:03:38;;;;;;;4.00;2.90;;;;;;;7.50;61.66;98010.94;5045237;28;20191;-69
2023/02/01 07:06:04;;;;;;;7.67;2.60;;;;;;;7.45;61.76;98007.00;5045734;28;20187;-69
2023/02/01 07:08:34;;;;;;;3.53;2.67;;;;;;;7.38;61.54;98010.06;5055148;28;20237;-69
2023/02/01 07:11:07;;;;;;;7.20;2.90;;;;;;;7.34;62.13;98013.00;5040042;28;20184;-69
2023/02/01 07:13:34;;;;;;;4.10;2.70;;;;;;;7.43;61.96;98020.16;5044951;28;20433;-70
2023/02/01 07:16:04;;;;;;;6.70;2.87;;;;;;;7.46;62.07;98035.56;5037549;28;20472;-68
2023/02/01 07:18:30;;;;;;;3.60;3.27;;;;;;;7.52;61.90;98035.16;5047097;28;20452;-70
2023/02/01 07:20:55;;;;;;;6.93;3.00;;;;;;;7.62;60.97;98034.47;5035580;28;20422;-70
2023/02/01 07:23:21;;;;;;;3.50;2.97;;;;;;;7.53;61.29;98036.81;5039973;28;20422;-69
2023/02/01 07:25:47;;;;;;;3.23;2.57;;;;;;;7.53;61.53;98046.41;5057287;28;20588;-69
2023/02/01 07:28:13;;;;;;;6.03;3.13;;;;;;;7.57;60.85;98047.00;5049590;28;20290;-70
2023/02/01 07:30:38;;;;;;;9.03;3.20;;;;;;;7.51;61.25;98053.50;5058761;28;20194;-69
2023/02/01 07:33:03;;;;;;;3.83;3.00;;;;;;;7.57;61.06;98054.81;5052085;28;20187;-70
2023/02/01 07:35:29;;;;;;;4.07;2.90;;;;;;;7.66;61.35;98052.38;5042826;28;20301;-68
2023/02/01 07:37:57;;;;;;;2.57;2.37;;;;;;;7.68;61.03;98058.31;5053930;28;20207;-69
2023/02/01 07:40:28;;;;;;;5.50;2.77;;;;;;;7.56;61.06;98067.03;5056395;28;20570;-68
2023/02/01 07:42:54;;;;;;;3.67;2.73;;;;;;;7.58;61.23;98064.31;5059402;28;20514;-69
2023/02/01 07:45:20;;;;;;;3.90;3.20;;;;;;;7.67;60.83;98063.66;5055800;28;20441;-68
2023/02/01 07:47:45;;;;;;;6.70;3.37;;;;;;;7.66;60.43;98067.22;5049479;28;20432;-69
2023/02/01 07:50:11;;;;;;;7.67;3.27;;;;;;;7.72;60.70;98058.91;5056953;28;20179;-69
2023/02/01 07:52:36;;;;;;;4.60;3.37;;;;;;;7.63;60.46;98062.22;5063792;28;20217;-68
2023/02/01 07:55:01;;;;;;;6.80;3.27;;;;;;;7.74;60.84;98059.66;5074560;28;20248;-69
2023/02/01 07:57:27;;;;;;;4.43;3.00;;;;;;;7.71;60.44;98057.25;5081970;28;20236;-70
2023/02/01 08:02:37;;;;;;;7.70;3.50;;;;;;;7.87;60.36;98058.72;5072475;28;20187;-70
2023/02/01 08:05:04;;;;;;;4.13;2.80;;;;;;;7.85;60.27;98056.25;5073579;28;20504;-70
2023/02/01 08:07:30;;;;;;;6.40;3.70;;;;;;;7.93;60.18;98056.50;5076853;28;20562;-70
2023/02/01 08:09:55;;;;;;;6.20;4.17;;;;;;;7.92;59.76;98049.63;5073305;28;20428;-69
2023/02/01 08:12:21;;;;;;;10.20;3.90;;;;;;;7.96;59.93;98048.44;5068372;28;20187;-70
2023/02/01 08:14:46;;;;;;;3.37;3.07;;;;;;;7.93;60.19;98053.06;5067948;28;20233;-71
2023/02/01 08:17:11;;;;;;;5.20;3.00;;;;;;;7.94;59.87;98052.94;5064342;28;20226;-69
2023/02/01 08:19:37;;;;;;;7.70;3.50;;;;;;;7.96;60.28;98053.66;5062770;28;20263;-70
2023/02/01 08:22:06;;;;;;;6.50;3.30;;;;;;;7.92;59.56;98056.63;5063770;28;20206;-68
2023/02/01 08:24:33;;;;;;;3.40;3.00;;;;;;;7.94;59.78;98046.91;5061062;28;20198;-70
2023/02/01 08:26:58;;;;;;;4.60;3.40;;;;;;;7.87;60.25;98037.84;5061047;28;20425;-68
2023/02/01 08:29:24;;;;;;;3.90;2.70;;;;;;;7.68;60.06;98034.03;5061603;28;20792;-70
2023/02/01 08:31:50;;;;;;;4.50;3.60;;;;;;;7.67;60.23;98035.78;5055797;28;20199;-68
2023/02/01 08:34:16;;;;;;;4.80;3.40;;;;;;;7.80;60.24;98037.47;5058660;28;20721;-70
2023/02/01 08:36:41;;;;;;;6.53;3.03;;;;;;;7.80;59.71;98035.72;5055253;28;20484;-69
2023/02/01 08:39:08;;;;;;;7.60;3.60;;;;;;;7.87;59.70;98030.03;5064759;28;20174;-71
2023/02/01 08:41:34;;;;;;;9.33;4.00;;;;;;;7.95;59.23;98035.50;5059617;28;20187;-70
2023/02/01 08:44:00;;;;;;;4.77;3.20;;;;;;;8.14;58.86;98045.38;5066652;28;21240;-69
2023/02/01 08:46:25;;;;;;;10.73;3.47;;;;;;;8.23;58.78;98049.06;5055422;28;20565;-69
2023/02/01 08:48:52;;;;;;;7.77;3.50;;;;;;;8.40;58.56;98050.41;5057645;28;20179;-70
2023/02/01 08:51:19;;;;;;;5.83;3.70;;;;;;;8.48;58.08;98053.31;5064240;28;20251;-68
2023/02/01 08:53:44;;;;;;;11.33;3.97;;;;;;;8.36;57.46;98060.25;5046111;28;20418;-69
2023/02/01 08:56:11;;;;;;;9.37;3.30;;;;;;;8.45;56.82;98059.53;5062037;28;20508;-68
2023/02/01 08:58:37;;;;;;;8.03;3.47;;;;;;;8.52;56.21;98053.88;5064870;28;20202;-69
2023/02/01 09:01:05;;;;;;;7.63;3.00;;;;;;;8.54;56.61;98057.22;5060877;28;21135;-68
2023/02/01 09:03:30;;;;;;;7.23;3.83;;;;;;;8.61;56.23;98053.16;5052833;28;20850;-68
2023/02/01 09:06:03;;;;;;;8.13;3.93;;;;;;;8.57;56.56;98051.72;5048118;28;20419;-68
2023/02/01 09:08:29;;;;;;;10.13;3.20;;;;;;;8.56;55.92;98050.09;5048727;28;20538;-67
2023/02/01 09:11:01;;;;;;;5.83;3.43;;;;;;;8.43;56.04;98056.25;5050868;28;20464;-68
2023/02/01 09:13:27;;;;;;;8.90;3.70;;;;;;;8.54;55.64;98052.00;5048096;28;20471;-68
2023/02/01 09:15:53;;;;;;;5.43;3.00;;;;;;;8.51;55.92;98073.94;5059199;28;20421;-67
2023/02/01 09:18:18;;;;;;;5.70;3.60;;;;;;;8.55;55.36;98079.78;5059084;28;20264;-69
2023/02/01 09:20:44;;;;;;;7.20;2.50;;;;;;;8.58;55.31;98079.53;5060496;28;20183;-68
2023/02/01 09:23:09;;;;;;;10.80;3.53;;;;;;;8.60;55.17;98090.69;5058998;28;20225;-70
2023/02/01 09:25:36;;;;;;;9.03;2.80;;;;;;;8.65;54.96;98080.72;5066014;28;20577;-70
2023/02/01 09:28:03;;;;;;;10.47;2.73;;;;;;;8.52;54.88;98078.22;5060376;28;20175;-70
2023/02/01 09:30:29;;;;;;;16.50;3.77;;;;;;;8.59;54.94;98086.41;5063158;28;20440;-70
2023/02/01 09:32:54;;;;;;;9.70;3.00;;;;;;;8.55;55.03;98090.25;5058697;28;20992;-70
2023/02/01 09:35:21;;;;;;;7.63;2.80;;;;;;;8.57;54.44;98083.09;5059098;28;20916;-70
2023/02/01 09:37:46;;;;;;;10.13;3.23;;;;;;;8.51;54.60;98094.84;5057436;28;20544;-70
2023/02/01 09:40:14;;;;;;;4.17;2.73;;;;;;;8.66;54.76;98085.00;5059160;28;20219;-70
2023/02/01 09:42:59;;;;;;;6.73;3.27;;;;;;;8.79;54.66;98084.88;5065996;28;20193;-71
2023/02/01 09:45:35;;;;;;;9.33;3.30;;;;;;;8.83;54.54;98086.31;5057476;28;20460;-71
2023/02/01 09:48:04;;;;;;;13.73;2.83;;;;;;;8.80;54.16;98093.56;5043315;28;20479;-70
2023/02/01 09:50:37;;;;;;;10.13;3.13;;;;;;;8.76;53.98;98087.72;5054948;28;20471;-71
2023/02/01 09:53:21;;;;;;;11.03;2.80;;;;;;;8.86;53.76;98093.94;5052306;28;20450;-70
2023/02/01 09:55:50;;;;;;;16.87;3.80;;;;;;;8.96;53.92;98094.00;5054738;28;20448;-70
2023/02/01 09:58:25;;;;;;;9.10;2.73;;;;;;;9.03;53.65;98103.06;5063933;28;20460;-70
2023/02/01 10:00:57;;;;;;;9.13;2.60;;;;;;;9.13;53.09;98100.56;5052099;28;20460;-71
2023/02/01 10:03:24;;;;;;;11.40;3.30;;;;;;;9.22;52.77;98098.97;5056474;28;20483;-71
2023/02/01 10:06:08;;;;;;;8.10;2.80;;;;;;;9.18;52.17;98097.56;5058717;28;20449;-70
2023/02/01 10:08:46;;;;;;;11.93;3.37;;;;;;;9.29;51.69;98109.78;5058825;28;20409;-71
2023/02/01 10:11:50;;;;;;;12.93;3.80;;;;;;;9.28;51.75;98108.13;5051517;28;20422;-70
2023/02/01 10:14:50;;;;;;;6.10;2.60;;;;;;;9.37;51.95;98110.03;5060940;28;20439;-70
2023/02/01 10:17:33;;;;;;;9.13;3.03;;;;;;;9.42;52.01;98109.66;5061363;28;20540;-70
2023/02/01 10:20:07;;;;;;;14.17;3.40;;;;;;;9.43;51.54;98116.56;5059483;28;20508;-70
2023/02/01 10:22:51;;;;;;;10.97;2.97;;;;;;;9.44;51.51;98124.25;5052258;28;20415;-71
2023/02/01 10:25:28;;;;;;;7.63;2.60;;;;;;;9.35;50.79;98127.63;5061548;28;20440;-71
2023/02/01 10:27:54;;;;;;;8.30;3.10;;;;;;;9.38;50.83;98130.81;5058764;28;20420;-69
2023/02/01 10:30:25;;;;;;;12.40;3.23;;;;;;;9.24;50.32;98120.63;5062530;28;20480;-70
2023/02/01 10:33:18;;;;;;;10.03;3.10;;;;;;;9.29;50.41;98126.31;5050982;28;20461;-70
2023/02/01 10:35:45;;;;;;;8.40;3.00;;;;;;;9.31;50.59;98121.81;5044048;28;20445;-70
2023/02/01 10:38:24;;;;;;;11.97;2.77;;;;;;;9.34;50.05;98118.94;5053970;28;20505;-68
2023/02/01 10:40:51;;;;;;;12.03;3.47;;;;;;;9.40;49.94;98122.84;5058981;28;20421;-70
2023/02/01 10:43:17;;;;;;;9.50;2.63;;;;;;;9.43;50.04;98134.88;5061784;28;20943;-69
2023/02/01 10:45:42;;;;;;;11.97;2.77;;;;;;;9.30;49.64;98129.75;5057200;28;20448;-69
2023/02/01 10:48:08;;;;;;;9.73;2.73;;;;;;;9.35;49.78;98131.06;5061480;28;20236;-69
2023/02/01 10:51:00;;;;;;;11.43;3.20;;;;;;;9.30;49.58;98135.84;5060010;28;20418;-71
2023/02/01 10:53:36;;;;;;;9.90;2.47;;;;;;;9.30;49.56;98133.22;5047050;28;20515;-71
2023/02/01 10:56:09;;;;;;;15.03;3.43;;;;;;;9.37;49.81;98129.16;5063525;28;21000;-70
2023/02/01 10:58:37;;;;;;;12.03;2.53;;;;;;;9.44;49.73;98123.44;5063169;28;20471;-69
2023/02/01 11:01:07;;;;;;;10.10;2.33;;;;;;;9.42;49.08;98114.88;5053557;28;20444;-71
2023/02/01 11:03:39;;;;;;;10.27;2.83;;;;;;;9.50;49.28;98112.47;5046175;28;20433;-69
2023/02/01 11:06:33;;;;;;;13.83;3.40;;;;;;;9.50;49.25;98110.72;5053422;28;20430;-69
2023/02/01 11:09:01;;;;;;;13.70;3.03;;;;;;;9.56;48.35;98106.75;5067173;28;20449;-69
2023/02/01 11:11:27;;;;;;;7.70;2.50;;;;;;;9.67;48.45;98104.09;5056217;28;20428;-70
2023/02/01 11:13:55;;;;;;;8.53;2.57;;;;;;;9.79;48.56;98096.19;5069081;28;20463;-70
2023/02/01 11:16:21;;;;;;;14.77;2.90;;;;;;;9.75;47.69;98105.25;5064397;28;20187;-68
2023/02/01 11:18:53;;;;;;;7.73;2.87;;;;;;;9.67;47.32;98098.88;5057061;28;21019;-70
2023/02/01 11:21:18;;;;;;;8.37;2.53;;;;;;;9.71;47.38;98102.06;5060166;28;20434;-70
2023/02/01 11:23:45;;;;;;;13.47;3.10;;;;;;;9.78;47.07;98099.78;5064111;28;20503;-69
2023/02/01 11:26:19;;;;;;;8.13;3.13;;;;;;;9.69;46.90;98101.34;5055752;28;20182;-69
2023/02/01 11:28:52;;;;;;;9.50;3.00;;;;;;;9.69;47.25;98106.59;5041395;28;20424;-71
2023/02/01 11:31:18;;;;;;;9.53;2.77;;;;;;;9.51;47.10;98099.25;5062204;28;20868;-70
2023/02/01 11:33:49;;;;;;;10.10;2.63;;;;;;;9.37;47.26;98097.75;5061446;28;20428;-69
2023/02/01 11:36:27;;;;;;;8.77;2.40;;;;;;;9.38;46.96;98096.81;5040656;28;20972;-69
2023/02/01 11:39:07;;;;;;;8.77;2.67;;;;;;;9.36;47.38;98087.44;5066925;28;20512;-70
2023/02/01 11:41:32;;;;;;;15.67;2.90;;;;;;;9.52;46.98;98085.22;5060768;28;20982;-70
2023/02/01 11:44:01;;;;;;;8.67;2.40;;;;;;;9.50;46.94;98081.91;5060608;28;20524;-72
2023/02/01 11:46:32;;;;;;;14.43;2.80;;;;;;;9.32;46.83;98078.16;5036310;28;20175;-70
2023/02/01 11:49:15;;;;;;;16.43;3.40;;;;;;;9.34;47.21;98063.97;5061628;28;21054;-70
2023/02/01 11:51:47;;;;;;;14.90;2.93;;;;;;;9.38;46.54;98065.41;5055057;28;20418;-70
2023/02/01 11:54:24;;;;;;;6.17;2.33;;;;;;;9.53;46.78;98045.00;5059131;28;20437;-71
2023/02/01 11:57:17;;;;;;;18.80;2.90;;;;;;;9.26;47.50;98048.09;5056081;28;20457;-69
2023/02/01 12:00:08;;;;;;;8.50;2.63;;;;;;;9.53;46.92;98041.56;5051493;28;20432;-69
2023/02/01 12:02:53;;;;;;;9.20;2.63;;;;;;;9.65;46.76;98042.34;5049341;28;20414;-71
2023/02/01 12:05:32;;;;;;;15.30;3.03;;;;;;;9.59;46.11;98041.06;5045651;28;20548;-71
2023/02/01 12:08:22;;;;;;;8.43;2.63;;;;;;;9.59;46.28;98042.84;5058246;28;20424;-70
2023/02/01 12:11:14;;;;;;;9.57;3.20;;;;;;;9.51;46.48;98030.41;5057151;28;20429;-69
2023/02/01 12:13:48;;;;;;;14.93;3.80;;;;;;;9.52;46.57;98029.44;5056278;28;20415;-70
2023/02/01 12:16:23;;;;;;;8.73;2.40;;;;;;;9.47;46.13;98018.50;5062777;28;20182;-71
2023/02/01 12:19:11;;;;;;;7.47;2.60;;;;;;;9.52;46.16;98024.22;5063198;28;20428;-70
2023/02/01 12:21:57;;;;;;;14.50;4.83;;;;;;;9.51;45.92;98019.94;5052088;28;20443;-70
2023/02/01 12:24:50;;;;;;;9.75;2.90;;;;;;;9.49;46.46;98024.47;5059134;28;20470;-71